sensor_id;sensor_type;location;lat;lon;timestamp;temperature;humidity
66752;SHT31;53663;42.676;23.238;2022-07-04T00:02:18;20.48;72.00
66752;SHT31;53663;42.676;23.238;2022-07-04T00:04:44;20.35;72.60
66752;SHT31;53663;42.676;23.238;2022-07-04T00:07:10;20.37;72.28
66752;SHT31;53663;42.676;23.238;2022-07-04T00:09:35;20.49;71.51
66752;SHT31;53663;42.676;23.238;2022-07-04T00:12:01;20.44;72.05
66752;SHT31;53663;42.676;23.238;2022-07-04T00:14:26;20.31;72.01
66752;SHT31;53663;42.676;23.238;2022-07-04T00:16:52;20.34;71.39
66752;SHT31;53663;42.676;23.238;2022-07-04T00:19:18;20.33;71.56
66752;SHT31;53663;42.676;23.238;2022-07-04T00:21:43;20.25;71.88
66752;SHT31;53663;42.676;23.238;2022-07-04T00:24:09;20.30;71.50
66752;SHT31;53663;42.676;23.238;2022-07-04T00:26:34;20.14;71.75
66752;SHT31;53663;42.676;23.238;2022-07-04T00:29:00;20.16;71.65
66752;SHT31;53663;42.676;23.238;2022-07-04T00:31:26;20.01;70.19
66752;SHT31;53663;42.676;23.238;2022-07-04T00:33:51;20.00;69.45
66752;SHT31;53663;42.676;23.238;2022-07-04T00:36:17;19.98;66.81
66752;SHT31;53663;42.676;23.238;2022-07-04T00:38:42;19.86;67.96
66752;SHT31;53663;42.676;23.238;2022-07-04T00:41:08;19.98;67.04
66752;SHT31;53663;42.676;23.238;2022-07-04T00:43:33;20.14;66.36
66752;SHT31;53663;42.676;23.238;2022-07-04T00:46:03;20.12;67.13
66752;SHT31;53663;42.676;23.238;2022-07-04T00:48:28;20.00;68.03
66752;SHT31;53663;42.676;23.238;2022-07-04T00:50:54;19.92;68.23
66752;SHT31;53663;42.676;23.238;2022-07-04T00:53:21;19.94;69.31
66752;SHT31;53663;42.676;23.238;2022-07-04T00:55:50;20.00;68.85
66752;SHT31;53663;42.676;23.238;2022-07-04T00:58:19;20.00;68.35
66752;SHT31;53663;42.676;23.238;2022-07-04T01:00:45;20.10;67.65
66752;SHT31;53663;42.676;23.238;2022-07-04T01:03:10;20.10;67.87
66752;SHT31;53663;42.676;23.238;2022-07-04T01:05:38;19.98;68.04
66752;SHT31;53663;42.676;23.238;2022-07-04T01:08:04;19.92;68.16
66752;SHT31;53663;42.676;23.238;2022-07-04T01:10:30;19.89;68.14
66752;SHT31;53663;42.676;23.238;2022-07-04T01:12:56;19.86;68.47
66752;SHT31;53663;42.676;23.238;2022-07-04T01:15:21;19.79;68.37
66752;SHT31;53663;42.676;23.238;2022-07-04T01:17:48;19.76;68.26
66752;SHT31;53663;42.676;23.238;2022-07-04T01:20:14;19.80;67.88
66752;SHT31;53663;42.676;23.238;2022-07-04T01:22:40;19.70;68.21
66752;SHT31;53663;42.676;23.238;2022-07-04T01:25:07;19.52;67.28
66752;SHT31;53663;42.676;23.238;2022-07-04T01:27:33;19.58;67.90
66752;SHT31;53663;42.676;23.238;2022-07-04T01:29:59;19.56;68.17
66752;SHT31;53663;42.676;23.238;2022-07-04T01:32:24;19.68;68.46
66752;SHT31;53663;42.676;23.238;2022-07-04T01:34:50;19.63;68.58
66752;SHT31;53663;42.676;23.238;2022-07-04T01:37:15;19.65;68.70
66752;SHT31;53663;42.676;23.238;2022-07-04T01:39:41;19.48;67.26
66752;SHT31;53663;42.676;23.238;2022-07-04T01:42:07;19.42;67.89
66752;SHT31;53663;42.676;23.238;2022-07-04T01:44:33;19.47;68.33
66752;SHT31;53663;42.676;23.238;2022-07-04T01:46:58;19.47;68.48
66752;SHT31;53663;42.676;23.238;2022-07-04T01:49:24;19.49;67.93
66752;SHT31;53663;42.676;23.238;2022-07-04T01:51:51;19.42;68.40
66752;SHT31;53663;42.676;23.238;2022-07-04T01:54:17;19.34;68.46
66752;SHT31;53663;42.676;23.238;2022-07-04T01:56:43;19.18;69.41
66752;SHT31;53663;42.676;23.238;2022-07-04T01:59:09;19.18;69.61
66752;SHT31;53663;42.676;23.238;2022-07-04T02:01:35;19.25;69.26
66752;SHT31;53663;42.676;23.238;2022-07-04T02:04:02;19.21;69.18
66752;SHT31;53663;42.676;23.238;2022-07-04T02:06:29;19.19;69.28
66752;SHT31;53663;42.676;23.238;2022-07-04T02:08:55;19.19;69.44
66752;SHT31;53663;42.676;23.238;2022-07-04T02:11:39;19.18;70.03
66752;SHT31;53663;42.676;23.238;2022-07-04T02:14:24;19.19;69.70
66752;SHT31;53663;42.676;23.238;2022-07-04T02:16:50;19.06;70.05
66752;SHT31;53663;42.676;23.238;2022-07-04T02:19:15;18.90;70.95
66752;SHT31;53663;42.676;23.238;2022-07-04T02:21:41;18.84;70.98
66752;SHT31;53663;42.676;23.238;2022-07-04T02:24:07;18.86;70.57
66752;SHT31;53663;42.676;23.238;2022-07-04T02:26:32;18.83;71.09
66752;SHT31;53663;42.676;23.238;2022-07-04T02:28:58;18.79;71.13
66752;SHT31;53663;42.676;23.238;2022-07-04T02:31:23;18.79;71.30
66752;SHT31;53663;42.676;23.238;2022-07-04T02:33:49;18.80;71.28
66752;SHT31;53663;42.676;23.238;2022-07-04T02:36:14;18.87;70.80
66752;SHT31;53663;42.676;23.238;2022-07-04T02:38:40;18.86;71.33
66752;SHT31;53663;42.676;23.238;2022-07-04T02:41:05;18.84;70.98
66752;SHT31;53663;42.676;23.238;2022-07-04T02:43:31;18.84;70.94
66752;SHT31;53663;42.676;23.238;2022-07-04T02:45:56;18.81;71.01
66752;SHT31;53663;42.676;23.238;2022-07-04T02:48:22;18.79;71.21
66752;SHT31;53663;42.676;23.238;2022-07-04T02:50:47;18.77;71.88
66752;SHT31;53663;42.676;23.238;2022-07-04T02:53:13;18.80;71.66
66752;SHT31;53663;42.676;23.238;2022-07-04T02:55:38;18.74;71.86
66752;SHT31;53663;42.676;23.238;2022-07-04T02:58:04;18.81;71.36
66752;SHT31;53663;42.676;23.238;2022-07-04T03:00:30;18.80;70.89
66752;SHT31;53663;42.676;23.238;2022-07-04T03:02:55;18.77;70.50
66752;SHT31;53663;42.676;23.238;2022-07-04T03:05:21;18.74;70.95
66752;SHT31;53663;42.676;23.238;2022-07-04T03:07:47;18.84;70.42
66752;SHT31;53663;42.676;23.238;2022-07-04T03:10:12;18.80;70.41
66752;SHT31;53663;42.676;23.238;2022-07-04T03:12:38;18.71;70.57
66752;SHT31;53663;42.676;23.238;2022-07-04T03:15:04;18.71;70.56
66752;SHT31;53663;42.676;23.238;2022-07-04T03:17:29;18.84;70.41
66752;SHT31;53663;42.676;23.238;2022-07-04T03:19:56;18.90;70.30
66752;SHT31;53663;42.676;23.238;2022-07-04T03:22:22;18.94;70.28
66752;SHT31;53663;42.676;23.238;2022-07-04T03:24:49;18.90;70.44
66752;SHT31;53663;42.676;23.238;2022-07-04T03:27:15;18.89;70.31
66752;SHT31;53663;42.676;23.238;2022-07-04T03:29:40;18.96;71.03
66752;SHT31;53663;42.676;23.238;2022-07-04T03:32:06;18.90;71.06
66752;SHT31;53663;42.676;23.238;2022-07-04T03:34:32;18.87;71.60
66752;SHT31;53663;42.676;23.238;2022-07-04T03:36:58;18.83;71.67
66752;SHT31;53663;42.676;23.238;2022-07-04T03:39:23;18.80;71.91
66752;SHT31;53663;42.676;23.238;2022-07-04T03:41:49;18.83;72.74
66752;SHT31;53663;42.676;23.238;2022-07-04T03:44:14;18.96;71.32
66752;SHT31;53663;42.676;23.238;2022-07-04T03:46:40;19.06;70.26
66752;SHT31;53663;42.676;23.238;2022-07-04T03:49:06;19.07;70.87
66752;SHT31;53663;42.676;23.238;2022-07-04T03:51:31;19.10;71.22
66752;SHT31;53663;42.676;23.238;2022-07-04T03:53:57;19.14;70.72
66752;SHT31;53663;42.676;23.238;2022-07-04T03:56:23;19.21;70.33
66752;SHT31;53663;42.676;23.238;2022-07-04T03:58:48;19.36;69.18
66752;SHT31;53663;42.676;23.238;2022-07-04T04:01:20;19.41;68.74
66752;SHT31;53663;42.676;23.238;2022-07-04T04:03:46;19.47;68.44
66752;SHT31;53663;42.676;23.238;2022-07-04T04:06:30;19.56;68.43
66752;SHT31;53663;42.676;23.238;2022-07-04T04:08:56;19.66;68.13
66752;SHT31;53663;42.676;23.238;2022-07-04T04:11:22;19.70;67.79
66752;SHT31;53663;42.676;23.238;2022-07-04T04:13:48;19.76;67.27
66752;SHT31;53663;42.676;23.238;2022-07-04T04:16:13;19.87;65.91
66752;SHT31;53663;42.676;23.238;2022-07-04T04:18:39;20.00;67.05
66752;SHT31;53663;42.676;23.238;2022-07-04T04:21:05;19.89;64.99
66752;SHT31;53663;42.676;23.238;2022-07-04T04:23:31;19.96;65.25
66752;SHT31;53663;42.676;23.238;2022-07-04T04:25:56;20.07;65.53
66752;SHT31;53663;42.676;23.238;2022-07-04T04:28:22;20.21;64.90
66752;SHT31;53663;42.676;23.238;2022-07-04T04:30:48;20.43;64.25
66752;SHT31;53663;42.676;23.238;2022-07-04T04:33:14;20.56;62.99
66752;SHT31;53663;42.676;23.238;2022-07-04T04:35:39;20.75;62.39
66752;SHT31;53663;42.676;23.238;2022-07-04T04:38:05;20.59;61.99
66752;SHT31;53663;42.676;23.238;2022-07-04T04:40:30;20.72;61.52
66752;SHT31;53663;42.676;23.238;2022-07-04T04:42:56;21.03;60.98
66752;SHT31;53663;42.676;23.238;2022-07-04T04:45:22;21.30;60.42
66752;SHT31;53663;42.676;23.238;2022-07-04T04:47:47;21.78;58.05
66752;SHT31;53663;42.676;23.238;2022-07-04T04:50:13;22.42;56.21
66752;SHT31;53663;42.676;23.238;2022-07-04T04:52:41;23.34;54.88
66752;SHT31;53663;42.676;23.238;2022-07-04T04:55:07;24.49;49.04
66752;SHT31;53663;42.676;23.238;2022-07-04T04:57:33;25.36;47.18
66752;SHT31;53663;42.676;23.238;2022-07-04T04:59:59;24.73;48.41
66752;SHT31;53663;42.676;23.238;2022-07-04T05:02:25;25.03;49.89
66752;SHT31;53663;42.676;23.238;2022-07-04T05:04:52;26.37;46.29
66752;SHT31;53663;42.676;23.238;2022-07-04T05:07:18;27.12;45.20
66752;SHT31;53663;42.676;23.238;2022-07-04T05:09:44;27.92;43.51
66752;SHT31;53663;42.676;23.238;2022-07-04T05:12:09;28.11;42.41
66752;SHT31;53663;42.676;23.238;2022-07-04T05:14:35;27.63;43.01
66752;SHT31;53663;42.676;23.238;2022-07-04T05:17:00;27.29;42.80
66752;SHT31;53663;42.676;23.238;2022-07-04T05:19:26;25.77;45.85
66752;SHT31;53663;42.676;23.238;2022-07-04T05:21:51;26.16;45.99
66752;SHT31;53663;42.676;23.238;2022-07-04T05:24:17;26.31;44.28
66752;SHT31;53663;42.676;23.238;2022-07-04T05:26:42;25.95;44.96
66752;SHT31;53663;42.676;23.238;2022-07-04T05:29:08;25.57;46.49
66752;SHT31;53663;42.676;23.238;2022-07-04T05:31:34;25.50;47.13
66752;SHT31;53663;42.676;23.238;2022-07-04T05:33:59;25.99;45.58
66752;SHT31;53663;42.676;23.238;2022-07-04T05:36:25;26.31;45.62
66752;SHT31;53663;42.676;23.238;2022-07-04T05:38:52;26.57;45.25
66752;SHT31;53663;42.676;23.238;2022-07-04T05:41:17;26.64;46.99
66752;SHT31;53663;42.676;23.238;2022-07-04T05:43:43;26.32;46.39
66752;SHT31;53663;42.676;23.238;2022-07-04T05:46:09;26.47;46.10
66752;SHT31;53663;42.676;23.238;2022-07-04T05:48:35;25.53;48.69
66752;SHT31;53663;42.676;23.238;2022-07-04T05:51:02;25.30;48.98
66752;SHT31;53663;42.676;23.238;2022-07-04T05:53:28;25.65;49.02
66752;SHT31;53663;42.676;23.238;2022-07-04T05:55:54;25.44;49.39
66752;SHT31;53663;42.676;23.238;2022-07-04T05:58:19;25.10;48.44
66752;SHT31;53663;42.676;23.238;2022-07-04T06:00:45;26.08;48.08
66752;SHT31;53663;42.676;23.238;2022-07-04T06:03:10;25.78;45.61
66752;SHT31;53663;42.676;23.238;2022-07-04T06:05:36;25.38;46.36
66752;SHT31;53663;42.676;23.238;2022-07-04T06:08:02;25.92;45.90
66752;SHT31;53663;42.676;23.238;2022-07-04T06:10:28;25.53;47.28
66752;SHT31;53663;42.676;23.238;2022-07-04T06:12:54;25.15;48.43
66752;SHT31;53663;42.676;23.238;2022-07-04T06:15:20;24.98;48.00
66752;SHT31;53663;42.676;23.238;2022-07-04T06:17:45;25.84;45.34
66752;SHT31;53663;42.676;23.238;2022-07-04T06:20:11;26.31;44.52
66752;SHT31;53663;42.676;23.238;2022-07-04T06:22:44;26.49;44.51
66752;SHT31;53663;42.676;23.238;2022-07-04T06:25:14;26.15;46.26
66752;SHT31;53663;42.676;23.238;2022-07-04T06:27:41;26.63;43.76
66752;SHT31;53663;42.676;23.238;2022-07-04T06:30:08;26.53;44.35
66752;SHT31;53663;42.676;23.238;2022-07-04T06:32:42;26.33;44.81
66752;SHT31;53663;42.676;23.238;2022-07-04T06:35:08;26.49;45.36
66752;SHT31;53663;42.676;23.238;2022-07-04T06:37:52;26.79;43.76
66752;SHT31;53663;42.676;23.238;2022-07-04T06:40:17;26.59;45.24
66752;SHT31;53663;42.676;23.238;2022-07-04T06:42:43;26.91;43.64
66752;SHT31;53663;42.676;23.238;2022-07-04T06:45:09;26.26;45.73
66752;SHT31;53663;42.676;23.238;2022-07-04T06:47:35;26.76;47.08
66752;SHT31;53663;42.676;23.238;2022-07-04T06:50:01;26.90;45.14
66752;SHT31;53663;42.676;23.238;2022-07-04T06:52:26;27.07;44.87
66752;SHT31;53663;42.676;23.238;2022-07-04T06:54:52;27.60;42.25
66752;SHT31;53663;42.676;23.238;2022-07-04T06:57:17;27.74;41.40
66752;SHT31;53663;42.676;23.238;2022-07-04T06:59:43;28.07;42.20
66752;SHT31;53663;42.676;23.238;2022-07-04T07:02:08;27.74;43.33
66752;SHT31;53663;42.676;23.238;2022-07-04T07:04:34;27.66;43.37
66752;SHT31;53663;42.676;23.238;2022-07-04T07:06:59;27.56;41.86
66752;SHT31;53663;42.676;23.238;2022-07-04T07:09:25;28.01;42.08
66752;SHT31;53663;42.676;23.238;2022-07-04T07:11:50;27.21;43.80
66752;SHT31;53663;42.676;23.238;2022-07-04T07:14:16;27.65;41.85
66752;SHT31;53663;42.676;23.238;2022-07-04T07:16:41;28.43;40.99
66752;SHT31;53663;42.676;23.238;2022-07-04T07:19:07;28.69;40.99
66752;SHT31;53663;42.676;23.238;2022-07-04T07:21:32;28.54;40.24
66752;SHT31;53663;42.676;23.238;2022-07-04T07:23:58;28.88;38.66
66752;SHT31;53663;42.676;23.238;2022-07-04T07:26:25;29.12;39.23
66752;SHT31;53663;42.676;23.238;2022-07-04T07:28:51;28.73;40.33
66752;SHT31;53663;42.676;23.238;2022-07-04T07:31:16;28.98;41.21
66752;SHT31;53663;42.676;23.238;2022-07-04T07:33:42;28.91;39.36
66752;SHT31;53663;42.676;23.238;2022-07-04T07:36:08;28.86;38.99
66752;SHT31;53663;42.676;23.238;2022-07-04T07:38:33;28.91;38.51
66752;SHT31;53663;42.676;23.238;2022-07-04T07:40:59;29.43;36.92
66752;SHT31;53663;42.676;23.238;2022-07-04T07:43:24;29.26;37.34
66752;SHT31;53663;42.676;23.238;2022-07-04T07:45:50;29.53;38.74
66752;SHT31;53663;42.676;23.238;2022-07-04T07:48:15;29.91;34.66
66752;SHT31;53663;42.676;23.238;2022-07-04T07:50:41;29.62;37.28
66752;SHT31;53663;42.676;23.238;2022-07-04T07:53:06;29.37;38.48
66752;SHT31;53663;42.676;23.238;2022-07-04T07:55:32;29.79;37.91
66752;SHT31;53663;42.676;23.238;2022-07-04T07:57:58;29.79;38.49
66752;SHT31;53663;42.676;23.238;2022-07-04T08:00:24;29.95;35.60
66752;SHT31;53663;42.676;23.238;2022-07-04T08:02:50;29.44;36.47
66752;SHT31;53663;42.676;23.238;2022-07-04T08:05:34;29.79;37.74
66752;SHT31;53663;42.676;23.238;2022-07-04T08:08:00;29.47;38.20
66752;SHT31;53663;42.676;23.238;2022-07-04T08:10:25;29.49;39.99
66752;SHT31;53663;42.676;23.238;2022-07-04T08:12:51;29.86;38.72
66752;SHT31;53663;42.676;23.238;2022-07-04T08:15:17;30.19;39.03
66752;SHT31;53663;42.676;23.238;2022-07-04T08:17:43;30.70;37.22
66752;SHT31;53663;42.676;23.238;2022-07-04T08:20:10;30.08;36.73
66752;SHT31;53663;42.676;23.238;2022-07-04T08:22:36;29.84;38.61
66752;SHT31;53663;42.676;23.238;2022-07-04T08:25:01;30.12;37.24
66752;SHT31;53663;42.676;23.238;2022-07-04T08:27:27;30.09;39.67
66752;SHT31;53663;42.676;23.238;2022-07-04T08:29:53;30.37;38.12
66752;SHT31;53663;42.676;23.238;2022-07-04T08:32:18;30.53;37.09
66752;SHT31;53663;42.676;23.238;2022-07-04T08:34:44;30.61;36.70
66752;SHT31;53663;42.676;23.238;2022-07-04T08:37:09;30.59;37.18
66752;SHT31;53663;42.676;23.238;2022-07-04T08:39:35;30.49;36.61
66752;SHT31;53663;42.676;23.238;2022-07-04T08:42:05;30.70;38.93
66752;SHT31;53663;42.676;23.238;2022-07-04T08:44:34;31.07;37.34
66752;SHT31;53663;42.676;23.238;2022-07-04T08:47:07;31.21;35.54
66752;SHT31;53663;42.676;23.238;2022-07-04T08:49:34;31.10;36.16
66752;SHT31;53663;42.676;23.238;2022-07-04T08:52:08;31.21;38.65
66752;SHT31;53663;42.676;23.238;2022-07-04T08:54:36;31.28;35.73
66752;SHT31;53663;42.676;23.238;2022-07-04T08:57:21;31.15;38.44
66752;SHT31;53663;42.676;23.238;2022-07-04T09:00:06;31.76;36.19
66752;SHT31;53663;42.676;23.238;2022-07-04T09:02:33;30.99;38.70
66752;SHT31;53663;42.676;23.238;2022-07-04T09:04:59;30.98;37.22
66752;SHT31;53663;42.676;23.238;2022-07-04T09:07:28;31.07;39.14
66752;SHT31;53663;42.676;23.238;2022-07-04T09:09:57;31.15;39.32
66752;SHT31;53663;42.676;23.238;2022-07-04T09:12:22;31.21;38.48
66752;SHT31;53663;42.676;23.238;2022-07-04T09:14:49;31.53;37.45
66752;SHT31;53663;42.676;23.238;2022-07-04T09:17:14;31.42;38.27
66752;SHT31;53663;42.676;23.238;2022-07-04T09:19:40;31.52;36.00
66752;SHT31;53663;42.676;23.238;2022-07-04T09:22:08;31.24;38.72
66752;SHT31;53663;42.676;23.238;2022-07-04T09:24:50;31.26;37.26
66752;SHT31;53663;42.676;23.238;2022-07-04T09:27:36;31.26;36.61
66752;SHT31;53663;42.676;23.238;2022-07-04T09:30:06;30.83;35.96
66752;SHT31;53663;42.676;23.238;2022-07-04T09:35:11;30.91;36.20
66752;SHT31;53663;42.676;23.238;2022-07-04T09:37:42;30.59;37.83
66752;SHT31;53663;42.676;23.238;2022-07-04T09:40:30;30.97;35.65
66752;SHT31;53663;42.676;23.238;2022-07-04T09:42:58;30.87;38.22
66752;SHT31;53663;42.676;23.238;2022-07-04T09:45:24;31.07;37.45
66752;SHT31;53663;42.676;23.238;2022-07-04T09:47:53;31.10;36.87
66752;SHT31;53663;42.676;23.238;2022-07-04T09:50:20;31.49;35.44
66752;SHT31;53663;42.676;23.238;2022-07-04T09:55:12;31.69;36.34
66752;SHT31;53663;42.676;23.238;2022-07-04T09:57:37;31.58;36.33
66752;SHT31;53663;42.676;23.238;2022-07-04T10:00:17;30.64;36.81
66752;SHT31;53663;42.676;23.238;2022-07-04T10:02:42;30.53;37.61
66752;SHT31;53663;42.676;23.238;2022-07-04T10:05:08;30.67;37.06
66752;SHT31;53663;42.676;23.238;2022-07-04T10:07:38;30.37;37.61
66752;SHT31;53663;42.676;23.238;2022-07-04T10:10:25;30.64;39.30
66752;SHT31;53663;42.676;23.238;2022-07-04T10:12:53;30.92;37.16
66752;SHT31;53663;42.676;23.238;2022-07-04T10:15:19;30.91;38.55
66752;SHT31;53663;42.676;23.238;2022-07-04T10:17:46;31.19;39.90
66752;SHT31;53663;42.676;23.238;2022-07-04T10:20:12;31.19;38.15
66752;SHT31;53663;42.676;23.238;2022-07-04T10:22:38;31.50;37.11
66752;SHT31;53663;42.676;23.238;2022-07-04T10:25:06;31.21;36.70
66752;SHT31;53663;42.676;23.238;2022-07-04T10:27:32;30.04;38.39
66752;SHT31;53663;42.676;23.238;2022-07-04T10:29:59;29.99;38.84
66752;SHT31;53663;42.676;23.238;2022-07-04T10:32:26;30.08;38.48
66752;SHT31;53663;42.676;23.238;2022-07-04T10:34:52;30.36;38.04
66752;SHT31;53663;42.676;23.238;2022-07-04T10:37:18;30.09;39.76
66752;SHT31;53663;42.676;23.238;2022-07-04T10:39:43;30.41;40.15
66752;SHT31;53663;42.676;23.238;2022-07-04T10:42:22;30.19;40.42
66752;SHT31;53663;42.676;23.238;2022-07-04T10:44:51;30.29;39.46
66752;SHT31;53663;42.676;23.238;2022-07-04T10:47:23;30.19;40.08
66752;SHT31;53663;42.676;23.238;2022-07-04T10:49:51;30.28;39.19
66752;SHT31;53663;42.676;23.238;2022-07-04T10:52:17;30.29;38.77
66752;SHT31;53663;42.676;23.238;2022-07-04T10:54:44;30.22;38.83
66752;SHT31;53663;42.676;23.238;2022-07-04T10:59:39;30.26;38.53
66752;SHT31;53663;42.676;23.238;2022-07-04T11:04:57;30.70;39.49
66752;SHT31;53663;42.676;23.238;2022-07-04T11:18:11;30.83;41.17
66752;SHT31;53663;42.676;23.238;2022-07-04T11:20:42;31.34;39.33
66752;SHT31;53663;42.676;23.238;2022-07-04T11:23:12;31.77;37.01
66752;SHT31;53663;42.676;23.238;2022-07-04T11:25:39;31.32;36.86
66752;SHT31;53663;42.676;23.238;2022-07-04T11:28:27;30.95;38.72
66752;SHT31;53663;42.676;23.238;2022-07-04T11:31:00;30.95;39.14
66752;SHT31;53663;42.676;23.238;2022-07-04T11:33:28;31.04;38.47
66752;SHT31;53663;42.676;23.238;2022-07-04T11:41:09;31.67;40.58
66752;SHT31;53663;42.676;23.238;2022-07-04T11:43:54;31.28;37.76
66752;SHT31;53663;42.676;23.238;2022-07-04T11:46:38;31.12;38.35
66752;SHT31;53663;42.676;23.238;2022-07-04T11:49:10;30.99;40.58
66752;SHT31;53663;42.676;23.238;2022-07-04T11:51:42;31.31;38.10
66752;SHT31;53663;42.676;23.238;2022-07-04T11:54:08;31.24;40.11
66752;SHT31;53663;42.676;23.238;2022-07-04T11:56:33;31.26;37.26
66752;SHT31;53663;42.676;23.238;2022-07-04T11:59:10;31.28;38.43
66752;SHT31;53663;42.676;23.238;2022-07-04T12:01:35;30.85;38.23
66752;SHT31;53663;42.676;23.238;2022-07-04T12:04:18;30.83;39.92
66752;SHT31;53663;42.676;23.238;2022-07-04T12:06:45;30.23;38.83
66752;SHT31;53663;42.676;23.238;2022-07-04T12:09:11;29.99;40.61
66752;SHT31;53663;42.676;23.238;2022-07-04T12:12:10;30.70;39.55
66752;SHT31;53663;42.676;23.238;2022-07-04T12:14:35;31.21;38.85
66752;SHT31;53663;42.676;23.238;2022-07-04T12:17:17;31.25;37.24
66752;SHT31;53663;42.676;23.238;2022-07-04T12:19:59;30.59;38.52
66752;SHT31;53663;42.676;23.238;2022-07-04T12:22:32;30.18;39.61
66752;SHT31;53663;42.676;23.238;2022-07-04T12:24:59;30.01;40.77
66752;SHT31;53663;42.676;23.238;2022-07-04T12:27:26;30.12;40.85
66752;SHT31;53663;42.676;23.238;2022-07-04T12:29:53;30.09;41.65
66752;SHT31;53663;42.676;23.238;2022-07-04T12:32:19;30.26;40.13
66752;SHT31;53663;42.676;23.238;2022-07-04T12:34:45;30.49;39.79
66752;SHT31;53663;42.676;23.238;2022-07-04T12:37:13;30.66;41.40
66752;SHT31;53663;42.676;23.238;2022-07-04T12:39:40;30.59;39.72
66752;SHT31;53663;42.676;23.238;2022-07-04T12:42:15;30.68;40.26
66752;SHT31;53663;42.676;23.238;2022-07-04T12:44:43;30.68;39.46
66752;SHT31;53663;42.676;23.238;2022-07-04T12:47:11;30.43;39.49
66752;SHT31;53663;42.676;23.238;2022-07-04T12:49:42;30.41;40.40
66752;SHT31;53663;42.676;23.238;2022-07-04T12:52:14;30.05;40.32
66752;SHT31;53663;42.676;23.238;2022-07-04T12:54:41;30.13;42.40
66752;SHT31;53663;42.676;23.238;2022-07-04T12:57:08;30.68;40.80
66752;SHT31;53663;42.676;23.238;2022-07-04T12:59:35;30.83;40.36
66752;SHT31;53663;42.676;23.238;2022-07-04T13:02:00;30.52;41.84
66752;SHT31;53663;42.676;23.238;2022-07-04T13:04:26;30.29;40.08
66752;SHT31;53663;42.676;23.238;2022-07-04T13:06:52;30.15;43.92
66752;SHT31;53663;42.676;23.238;2022-07-04T13:09:18;30.55;40.93
66752;SHT31;53663;42.676;23.238;2022-07-04T13:11:44;30.60;40.42
66752;SHT31;53663;42.676;23.238;2022-07-04T13:14:28;30.35;41.83
66752;SHT31;53663;42.676;23.238;2022-07-04T13:16:53;30.46;42.04
66752;SHT31;53663;42.676;23.238;2022-07-04T13:19:19;30.56;40.30
66752;SHT31;53663;42.676;23.238;2022-07-04T13:21:45;30.57;41.40
66752;SHT31;53663;42.676;23.238;2022-07-04T13:24:13;30.55;40.95
66752;SHT31;53663;42.676;23.238;2022-07-04T13:26:38;30.55;40.97
66752;SHT31;53663;42.676;23.238;2022-07-04T13:29:05;30.18;41.10
66752;SHT31;53663;42.676;23.238;2022-07-04T13:31:30;30.10;41.99
66752;SHT31;53663;42.676;23.238;2022-07-04T13:33:56;30.15;40.82
66752;SHT31;53663;42.676;23.238;2022-07-04T13:36:22;30.19;41.49
66752;SHT31;53663;42.676;23.238;2022-07-04T13:38:47;30.29;40.25
66752;SHT31;53663;42.676;23.238;2022-07-04T13:41:13;30.06;40.24
66752;SHT31;53663;42.676;23.238;2022-07-04T13:43:40;30.01;40.90
66752;SHT31;53663;42.676;23.238;2022-07-04T13:46:06;30.18;39.55
66752;SHT31;53663;42.676;23.238;2022-07-04T13:48:32;30.15;41.16
66752;SHT31;53663;42.676;23.238;2022-07-04T13:50:57;30.09;40.71
66752;SHT31;53663;42.676;23.238;2022-07-04T13:53:23;30.28;41.27
66752;SHT31;53663;42.676;23.238;2022-07-04T13:55:49;30.37;41.20
66752;SHT31;53663;42.676;23.238;2022-07-04T13:58:14;30.25;40.36
66752;SHT31;53663;42.676;23.238;2022-07-04T14:00:40;30.26;40.87
66752;SHT31;53663;42.676;23.238;2022-07-04T14:03:10;30.20;41.25
66752;SHT31;53663;42.676;23.238;2022-07-04T14:05:36;30.18;41.19
66752;SHT31;53663;42.676;23.238;2022-07-04T14:08:02;30.43;40.12
66752;SHT31;53663;42.676;23.238;2022-07-04T14:10:28;30.44;40.33
66752;SHT31;53663;42.676;23.238;2022-07-04T14:12:53;30.22;41.94
66752;SHT31;53663;42.676;23.238;2022-07-04T14:15:19;30.32;40.93
66752;SHT31;53663;42.676;23.238;2022-07-04T14:17:45;30.57;40.26
66752;SHT31;53663;42.676;23.238;2022-07-04T14:20:11;30.25;41.03
66752;SHT31;53663;42.676;23.238;2022-07-04T14:22:38;30.10;41.19
66752;SHT31;53663;42.676;23.238;2022-07-04T14:25:05;30.19;40.61
66752;SHT31;53663;42.676;23.238;2022-07-04T14:27:31;30.29;40.49
66752;SHT31;53663;42.676;23.238;2022-07-04T14:29:56;30.23;40.79
66752;SHT31;53663;42.676;23.238;2022-07-04T14:32:22;30.25;41.51
66752;SHT31;53663;42.676;23.238;2022-07-04T14:34:47;30.50;41.23
66752;SHT31;53663;42.676;23.238;2022-07-04T14:37:13;30.32;42.04
66752;SHT31;53663;42.676;23.238;2022-07-04T14:39:39;30.29;41.73
66752;SHT31;53663;42.676;23.238;2022-07-04T14:42:04;29.99;42.43
66752;SHT31;53663;42.676;23.238;2022-07-04T14:44:30;29.81;41.56
66752;SHT31;53663;42.676;23.238;2022-07-04T14:46:56;29.74;42.76
66752;SHT31;53663;42.676;23.238;2022-07-04T14:49:21;29.79;42.76
66752;SHT31;53663;42.676;23.238;2022-07-04T14:51:47;29.84;41.59
66752;SHT31;53663;42.676;23.238;2022-07-04T14:54:12;29.65;42.90
66752;SHT31;53663;42.676;23.238;2022-07-04T14:56:38;29.70;41.57
66752;SHT31;53663;42.676;23.238;2022-07-04T14:59:04;29.64;41.71
66752;SHT31;53663;42.676;23.238;2022-07-04T15:01:31;29.77;42.18
66752;SHT31;53663;42.676;23.238;2022-07-04T15:03:56;29.92;42.65
66752;SHT31;53663;42.676;23.238;2022-07-04T15:06:22;29.89;43.09
66752;SHT31;53663;42.676;23.238;2022-07-04T15:08:48;29.81;41.58
66752;SHT31;53663;42.676;23.238;2022-07-04T15:11:13;29.78;42.46
66752;SHT31;53663;42.676;23.238;2022-07-04T15:13:39;29.70;43.55
66752;SHT31;53663;42.676;23.238;2022-07-04T15:16:05;29.64;43.88
66752;SHT31;53663;42.676;23.238;2022-07-04T15:18:31;29.51;43.54
66752;SHT31;53663;42.676;23.238;2022-07-04T15:20:57;29.41;44.28
66752;SHT31;53663;42.676;23.238;2022-07-04T15:23:41;29.54;44.71
66752;SHT31;53663;42.676;23.238;2022-07-04T15:26:25;29.51;44.60
66752;SHT31;53663;42.676;23.238;2022-07-04T15:28:51;29.35;44.60
66752;SHT31;53663;42.676;23.238;2022-07-04T15:31:17;29.22;44.74
66752;SHT31;53663;42.676;23.238;2022-07-04T15:33:42;29.09;45.03
66752;SHT31;53663;42.676;23.238;2022-07-04T15:36:08;29.02;45.48
66752;SHT31;53663;42.676;23.238;2022-07-04T15:38:34;28.96;45.82
66752;SHT31;53663;42.676;23.238;2022-07-04T15:41:00;29.12;44.20
66752;SHT31;53663;42.676;23.238;2022-07-04T15:43:31;29.07;44.23